x

West Sea Otter (46204) Wave Buoy

9:00pm - Sun 21st Dec 2014 All times are PST. -8 hours from GMT.

  • Sig Wave height 15.7ft
  • Peak Period 12s
  • Wind
    27mph, 31mph gusts
  • Sea Temp 51°f
  • Air Temp 49°f
  • Sea Pressure 1013.7mb
  • West Sea Otter
  • West Sea Otter

More Historic Weather Station data

Upgrade to MSW Pro to gain access to the past 30 days of data for over 8000 Wavebouys and Weather Stations around the globe.

Join Pro

Comparision Forecast

View Surf forecast
   
Sun 12/21 9:00pm 15.5ft 12s 27 31 mph 1013.7mb 51f 49f
8:00pm 15ft 12s 16 20 mph 1013.2mb 51f 48f
7:00pm 15.5ft 11s 22 29 mph 1012.6mb 51f 50f
6:00pm 14.5ft 11s 22 27 mph 1012mb 51f 49f
5:00pm 15ft 13s 22 29 mph 1011.3mb 51f 49f
4:00pm 14ft 14s 18 22 mph 1010.3mb 51f 48f
3:00pm 14ft 12s 27 36 mph 1008.7mb 51f 49f
2:00pm 14ft 12s 27 34 mph 1007.7mb 51f 50f
1:00pm 14ft 12s 29 38 mph 1006.5mb 50f 50f
12:00pm 13.5ft 11s 25 31 mph 1005.6mb 51f 50f
11:00am 13ft 12s 25 31 mph 1005.1mb 51f 50f
9:00am 12ft 12s 22 29 mph 1003.5mb 51f 51f
8:00am 13ft 12s 22 29 mph 1003.3mb 51f 51f
7:00am 13ft 13s 18 22 mph 1002.8mb 51f 50f
6:00am 13ft 12s 18 22 mph 1001.9mb 51f 51f
5:00am 11.5ft 11s 18 22 mph 1001.4mb 50f 50f
4:00am 12.5ft 12s 13 20 mph 1000.6mb 50f 51f
3:00am 11.5ft 12s 18 22 mph 999.6mb 50f 49f
2:00am 11.5ft 11s 20 27 mph 998.8mb 50f 50f
1:00am 12.5ft 12s 18 20 mph 997.5mb 50f 49f
12:00am 12ft 11s 18 22 mph 995.8mb 50f 50f
Sat 12/20 11:00pm 12ft 11s 22 27 mph 994.7mb 50f 49f
10:00pm 12ft 14s 22 27 mph 993.3mb 50f 50f
9:00pm 12.5ft 12s 20 25 mph 991.8mb 50f 50f
8:00pm 13.5ft 11s 20 25 mph 990.6mb 50f 50f
7:00pm 13.5ft 12s 13 18 mph 989.8mb 50f 48f
6:00pm 13ft 11s 11 16 mph 988.8mb 50f 49f
5:00pm 13ft 14s 16 20 mph 988.3mb 51f 48f
4:00pm 14ft 13s 27 31 mph 987.4mb 51f 48f
3:00pm 14ft 14s 25 31 mph 987.7mb 51f 47f
2:00pm 14ft 11s 27 31 mph 987.7mb 50f 48f
1:00pm 14ft 11s 7 9 mph 988.4mb 51f 51f
12:00pm 15.5ft 14s 11 16 mph 988.8mb 51f 51f
11:00am 16.5ft 12s 20 27 mph 988.5mb 50f 49f
10:00am 18.5ft 12s 20 38 mph 988.3mb 51f 48f
8:00am 20.5ft 14s 36 45 mph 986.6mb 51f 47f
7:00am 20.5ft 8s 40 49 mph 986.4mb 51f 47f
6:00am 20.5ft 8s 43 54 mph 986.5mb 50f 47f
5:00am 19.5ft 8s 45 56 mph 987mb 50f 48f
4:00am 21ft 8s 45 63 mph 987.3mb 50f 48f
3:00am  -   -  45
mph
- - -
2:00am 20ft 14s 43 56 mph 989.6mb 51f 47f
1:00am 20.5ft 8s 40 56 mph 990.6mb 51f 47f
12:00am 22.5ft 16s 40 49 mph 992.2mb 51f 47f
Fri 12/19 11:00pm 23ft 16s 40 51 mph 993mb 51f 47f
10:00pm  -   -  38
mph
- - 47f
9:00pm 22.5ft 16s 36 47 mph 995.4mb 51f 47f
8:00pm 20.5ft 14s 36 43 mph 996.1mb 51f 48f
7:00pm  -   -  34
mph
- - -
6:00pm 18ft 17s 27 36 mph 998.7mb 51f 48f
5:00pm 17.5ft 17s 29 38 mph 999mb 51f 49f
4:00pm 16.5ft 16s 29 34 mph 999.4mb 51f 50f
3:00pm 15.5ft 17s 31 40 mph 999.1mb 51f 51f
2:00pm 16.5ft 10s 27 36 mph 999.3mb 51f 50f
1:00pm 15.5ft 14s 29 38 mph 999.4mb 51f 49f
12:00pm 15.5ft 13s 31 40 mph 998.8mb 51f 50f
11:00am  -   -  25
mph
- - -
10:00am 15ft 18s 34 38 mph 998.7mb 51f 47f
9:00am 14ft 16s 31 40 mph 998.7mb 51f 48f
8:00am 14ft 17s 29 38 mph 998.6mb 51f 48f
6:00am 14.5ft 16s 25 31 mph 998.6mb 51f 49f
5:00am 15ft 18s 27 31 mph 998.6mb 51f 49f
4:00am 15ft 18s 25 31 mph 998.5mb 51f 48f
3:00am 11.5ft 20s 27 31 mph 998.1mb 51f 48f
2:00am 10.5ft 20s 22 27 mph 997.5mb 51f 49f
1:00am 10ft 10s 22 27 mph 997.1mb 51f 47f
12:00am 9ft 10s 16 22 mph 996.9mb 51f 47f
Thu 12/18 11:00pm 10ft 11s 16 18 mph 996.8mb 51f 48f
10:00pm 10.5ft 11s 13 16 mph 995.9mb 51f 47f
9:00pm 13ft 11s 22 27 mph 994.6mb 51f 49f
8:00pm 14.5ft 10s 31 40 mph 994mb 51f 48f
7:00pm 15.5ft 10s 36 47 mph 993.3mb 51f 48f
6:00pm 16.5ft 8s 36 51 mph 993.3mb 51f 47f
5:00pm 16.5ft 8s 43 56 mph 992.4mb 51f 48f
4:00pm 15.5ft 10s 47 56 mph 991.8mb 51f 48f
3:00pm 16ft 9s 47 56 mph 992.5mb 51f 48f
2:00pm 17ft 8s 47 58 mph 993.7mb 51f 48f
1:00pm 17.5ft 8s 43 54 mph 994.8mb 51f 48f
12:00pm 16.5ft 8s 45 51 mph 996.2mb 50f 48f
11:00am 16ft 8s 40 51 mph 997.3mb 50f 48f
10:00am 15.5ft 7s 43 54 mph 998mb 50f 48f
9:00am 14.5ft 8s 43 56 mph 998mb 50f 48f
8:00am 13.5ft 7s 45 56 mph 998.5mb 50f 48f
7:00am 13ft 7s 40 51 mph 999.7mb 50f 48f